CheckWX is a tool to help pilots better visualize weather data.  It is not intended as a substitute for an official pre-flight weather briefing.

02:10:53 UTC

KTKV METAR
Tomahawk Regional Airport
Tomahawk, Wisconsin, USA
Current

16 mins ago

KTKV 180155Z AUTO 02004KT 10SM CLR M10/M14 A3005 RMK AO2 T11011141
Observed
Feb-18 @ 01:55 UTC
Wind
  • 020° at 4 KTS
Visibility
10 SM
Flight Rules
VFR
Cloud Levels
  • Clear skies
Temperature
-10°C / 14°F
Dewpoint
-14°C / 7°F
Humidity
73%
Altimeter
30.05" Hg
Pressure
1017.62 hPa
Previous

36 mins ago

KTKV 180135Z AUTO 02007KT 10SM CLR M10/M14 A3004 RMK AO2 T11001139
Observed
Feb-18 @ 01:35 UTC
Wind
  • 020° at 7 KTS
Visibility
10 SM
Flight Rules
VFR
Cloud Levels
  • Clear skies
Temperature
-10°C / 14°F
Dewpoint
-14°C / 7°F
Humidity
73%
Altimeter
30.04" Hg
Pressure
1017.32 hPa
Previous

56 mins ago

KTKV 180115Z AUTO 02004KT 10SM CLR M10/M13 A3004 RMK AO2 T10961135
Observed
Feb-18 @ 01:15 UTC
Wind
  • 020° at 4 KTS
Visibility
10 SM
Flight Rules
VFR
Cloud Levels
  • Clear skies
Temperature
-10°C / 14°F
Dewpoint
-14°C / 7°F
Humidity
73%
Altimeter
30.04" Hg
Pressure
1017.32 hPa